sensor_id;sensor_type;location;lat;lon;timestamp;P1;durP1;ratioP1;P2;durP2;ratioP2
49650;SDS011;35547;55.676;37.492;2022-08-19T00:00:21;10.25;;;4.55;;
49650;SDS011;35547;55.676;37.492;2022-08-19T00:01:21;12.02;;;4.57;;
49650;SDS011;35547;55.676;37.492;2022-08-19T00:02:22;8.30;;;5.00;;
49650;SDS011;35547;55.676;37.492;2022-08-19T00:03:23;14.47;;;4.70;;
49650;SDS011;35547;55.676;37.492;2022-08-19T00:04:25;10.30;;;4.07;;
49650;SDS011;35547;55.676;37.492;2022-08-19T00:05:28;13.23;;;4.57;;
49650;SDS011;35547;55.676;37.492;2022-08-19T00:06:28;11.23;;;3.77;;
49650;SDS011;35547;55.676;37.492;2022-08-19T00:07:30;9.02;;;4.13;;
49650;SDS011;35547;55.676;37.492;2022-08-19T00:08:30;17.70;;;5.10;;
49650;SDS011;35547;55.676;37.492;2022-08-19T00:09:31;15.80;;;4.05;;
49650;SDS011;35547;55.676;37.492;2022-08-19T00:10:32;10.95;;;4.25;;
49650;SDS011;35547;55.676;37.492;2022-08-19T00:11:34;7.75;;;4.47;;
49650;SDS011;35547;55.676;37.492;2022-08-19T00:12:37;14.02;;;4.65;;
49650;SDS011;35547;55.676;37.492;2022-08-19T00:13:38;9.80;;;3.53;;
49650;SDS011;35547;55.676;37.492;2022-08-19T00:14:38;18.77;;;4.23;;
49650;SDS011;35547;55.676;37.492;2022-08-19T00:15:39;13.30;;;3.95;;
49650;SDS011;35547;55.676;37.492;2022-08-19T00:16:40;16.10;;;4.30;;
49650;SDS011;35547;55.676;37.492;2022-08-19T00:17:42;7.95;;;3.80;;
49650;SDS011;35547;55.676;37.492;2022-08-19T00:18:44;12.65;;;4.78;;
49650;SDS011;35547;55.676;37.492;2022-08-19T00:19:45;12.40;;;4.25;;
49650;SDS011;35547;55.676;37.492;2022-08-19T00:20:46;13.27;;;3.90;;
49650;SDS011;35547;55.676;37.492;2022-08-19T00:21:46;6.63;;;4.27;;
49650;SDS011;35547;55.676;37.492;2022-08-19T00:22:47;13.25;;;4.32;;
49650;SDS011;35547;55.676;37.492;2022-08-19T00:23:48;9.70;;;4.03;;
49650;SDS011;35547;55.676;37.492;2022-08-19T00:24:48;13.57;;;4.13;;
49650;SDS011;35547;55.676;37.492;2022-08-19T00:25:49;10.50;;;4.90;;
49650;SDS011;35547;55.676;37.492;2022-08-19T00:26:50;12.48;;;4.05;;
49650;SDS011;35547;55.676;37.492;2022-08-19T00:27:52;12.95;;;4.05;;
49650;SDS011;35547;55.676;37.492;2022-08-19T00:28:52;11.93;;;4.83;;
49650;SDS011;35547;55.676;37.492;2022-08-19T00:29:53;10.07;;;3.70;;
49650;SDS011;35547;55.676;37.492;2022-08-19T00:30:54;15.00;;;4.43;;
49650;SDS011;35547;55.676;37.492;2022-08-19T00:31:55;10.88;;;4.13;;
49650;SDS011;35547;55.676;37.492;2022-08-19T00:32:58;9.32;;;4.10;;
49650;SDS011;35547;55.676;37.492;2022-08-19T00:33:59;13.80;;;4.17;;
49650;SDS011;35547;55.676;37.492;2022-08-19T00:35:00;8.50;;;4.60;;
49650;SDS011;35547;55.676;37.492;2022-08-19T00:36:01;12.00;;;4.18;;
49650;SDS011;35547;55.676;37.492;2022-08-19T00:37:05;16.38;;;4.53;;
49650;SDS011;35547;55.676;37.492;2022-08-19T00:38:06;15.30;;;4.57;;
49650;SDS011;35547;55.676;37.492;2022-08-19T00:39:07;9.10;;;3.90;;
49650;SDS011;35547;55.676;37.492;2022-08-19T00:40:08;12.70;;;4.40;;
49650;SDS011;35547;55.676;37.492;2022-08-19T00:41:15;11.85;;;4.22;;
49650;SDS011;35547;55.676;37.492;2022-08-19T00:42:21;21.45;;;4.45;;
49650;SDS011;35547;55.676;37.492;2022-08-19T00:44:26;8.82;;;4.13;;
49650;SDS011;35547;55.676;37.492;2022-08-19T00:45:28;7.80;;;4.25;;
49650;SDS011;35547;55.676;37.492;2022-08-19T00:46:34;7.95;;;4.22;;
49650;SDS011;35547;55.676;37.492;2022-08-19T00:47:37;9.68;;;4.88;;
49650;SDS011;35547;55.676;37.492;2022-08-19T00:48:38;11.50;;;5.25;;
49650;SDS011;35547;55.676;37.492;2022-08-19T00:49:43;12.73;;;4.47;;
49650;SDS011;35547;55.676;37.492;2022-08-19T00:50:50;12.75;;;4.75;;
49650;SDS011;35547;55.676;37.492;2022-08-19T00:51:55;9.95;;;4.65;;
49650;SDS011;35547;55.676;37.492;2022-08-19T00:53:16;14.00;;;4.78;;
49650;SDS011;35547;55.676;37.492;2022-08-19T00:54:20;13.82;;;4.97;;
49650;SDS011;35547;55.676;37.492;2022-08-19T00:55:22;13.95;;;4.85;;
49650;SDS011;35547;55.676;37.492;2022-08-19T00:56:28;12.75;;;4.70;;
49650;SDS011;35547;55.676;37.492;2022-08-19T00:57:35;11.57;;;4.40;;
49650;SDS011;35547;55.676;37.492;2022-08-19T00:58:40;15.82;;;4.60;;
49650;SDS011;35547;55.676;37.492;2022-08-19T00:59:41;11.98;;;4.68;;
49650;SDS011;35547;55.676;37.492;2022-08-19T01:00:46;11.70;;;5.53;;
49650;SDS011;35547;55.676;37.492;2022-08-19T01:01:47;11.20;;;5.57;;
49650;SDS011;35547;55.676;37.492;2022-08-19T01:02:48;8.13;;;4.57;;
49650;SDS011;35547;55.676;37.492;2022-08-19T01:03:48;10.57;;;4.93;;
49650;SDS011;35547;55.676;37.492;2022-08-19T01:04:49;8.90;;;4.43;;
49650;SDS011;35547;55.676;37.492;2022-08-19T01:05:50;14.63;;;4.57;;
49650;SDS011;35547;55.676;37.492;2022-08-19T01:06:54;8.70;;;4.90;;
49650;SDS011;35547;55.676;37.492;2022-08-19T01:07:56;12.18;;;4.63;;
49650;SDS011;35547;55.676;37.492;2022-08-19T01:09:00;16.63;;;4.90;;
49650;SDS011;35547;55.676;37.492;2022-08-19T01:10:01;8.53;;;4.40;;
49650;SDS011;35547;55.676;37.492;2022-08-19T01:11:03;12.98;;;4.75;;
49650;SDS011;35547;55.676;37.492;2022-08-19T01:12:04;13.50;;;5.28;;
49650;SDS011;35547;55.676;37.492;2022-08-19T01:13:05;11.97;;;4.93;;
49650;SDS011;35547;55.676;37.492;2022-08-19T01:14:06;9.80;;;4.27;;
49650;SDS011;35547;55.676;37.492;2022-08-19T01:15:08;13.05;;;5.22;;
49650;SDS011;35547;55.676;37.492;2022-08-19T01:16:11;10.27;;;4.50;;
49650;SDS011;35547;55.676;37.492;2022-08-19T01:17:13;13.27;;;5.20;;
49650;SDS011;35547;55.676;37.492;2022-08-19T01:19:27;10.57;;;4.20;;
49650;SDS011;35547;55.676;37.492;2022-08-19T01:20:31;11.82;;;4.88;;
49650;SDS011;35547;55.676;37.492;2022-08-19T01:21:35;11.55;;;4.65;;
49650;SDS011;35547;55.676;37.492;2022-08-19T01:22:43;9.05;;;4.30;;
49650;SDS011;35547;55.676;37.492;2022-08-19T01:23:46;11.23;;;4.30;;
49650;SDS011;35547;55.676;37.492;2022-08-19T01:24:46;12.40;;;4.70;;
49650;SDS011;35547;55.676;37.492;2022-08-19T01:25:48;11.05;;;4.68;;
49650;SDS011;35547;55.676;37.492;2022-08-19T01:26:51;6.32;;;4.15;;
49650;SDS011;35547;55.676;37.492;2022-08-19T01:27:52;11.00;;;4.60;;
49650;SDS011;35547;55.676;37.492;2022-08-19T01:28:54;8.70;;;4.22;;
49650;SDS011;35547;55.676;37.492;2022-08-19T01:29:56;9.32;;;5.00;;
49650;SDS011;35547;55.676;37.492;2022-08-19T01:30:57;9.40;;;4.50;;
49650;SDS011;35547;55.676;37.492;2022-08-19T01:31:57;12.53;;;4.53;;
49650;SDS011;35547;55.676;37.492;2022-08-19T01:33:00;11.85;;;4.80;;
49650;SDS011;35547;55.676;37.492;2022-08-19T01:34:01;9.80;;;4.50;;
49650;SDS011;35547;55.676;37.492;2022-08-19T01:35:03;7.70;;;4.18;;
49650;SDS011;35547;55.676;37.492;2022-08-19T01:36:09;12.02;;;4.80;;
49650;SDS011;35547;55.676;37.492;2022-08-19T01:37:15;7.88;;;4.10;;
49650;SDS011;35547;55.676;37.492;2022-08-19T01:38:19;17.77;;;4.97;;
49650;SDS011;35547;55.676;37.492;2022-08-19T01:39:24;8.90;;;4.40;;
49650;SDS011;35547;55.676;37.492;2022-08-19T01:41:27;11.95;;;4.28;;
49650;SDS011;35547;55.676;37.492;2022-08-19T01:42:27;10.83;;;4.60;;
49650;SDS011;35547;55.676;37.492;2022-08-19T01:43:28;11.17;;;4.30;;
49650;SDS011;35547;55.676;37.492;2022-08-19T01:44:29;10.10;;;4.47;;
49650;SDS011;35547;55.676;37.492;2022-08-19T01:45:32;17.58;;;4.80;;
49650;SDS011;35547;55.676;37.492;2022-08-19T01:46:34;11.32;;;5.32;;
49650;SDS011;35547;55.676;37.492;2022-08-19T01:47:35;16.80;;;4.85;;
49650;SDS011;35547;55.676;37.492;2022-08-19T01:49:41;12.25;;;3.85;;
49650;SDS011;35547;55.676;37.492;2022-08-19T01:50:41;13.83;;;4.17;;
49650;SDS011;35547;55.676;37.492;2022-08-19T01:51:43;9.20;;;4.07;;
49650;SDS011;35547;55.676;37.492;2022-08-19T01:52:44;21.37;;;4.33;;
49650;SDS011;35547;55.676;37.492;2022-08-19T01:53:47;15.50;;;5.07;;
49650;SDS011;35547;55.676;37.492;2022-08-19T01:54:49;14.95;;;3.90;;
49650;SDS011;35547;55.676;37.492;2022-08-19T01:55:49;11.93;;;4.27;;
49650;SDS011;35547;55.676;37.492;2022-08-19T01:56:51;11.88;;;4.80;;
49650;SDS011;35547;55.676;37.492;2022-08-19T01:57:55;11.10;;;3.88;;
49650;SDS011;35547;55.676;37.492;2022-08-19T01:59:03;9.90;;;4.05;;
49650;SDS011;35547;55.676;37.492;2022-08-19T02:00:11;14.38;;;4.10;;
49650;SDS011;35547;55.676;37.492;2022-08-19T02:01:16;16.77;;;4.95;;
49650;SDS011;35547;55.676;37.492;2022-08-19T02:02:16;8.95;;;4.03;;
49650;SDS011;35547;55.676;37.492;2022-08-19T02:03:17;10.83;;;3.87;;
49650;SDS011;35547;55.676;37.492;2022-08-19T02:04:17;11.60;;;4.03;;
49650;SDS011;35547;55.676;37.492;2022-08-19T02:05:18;8.67;;;4.00;;
49650;SDS011;35547;55.676;37.492;2022-08-19T02:06:21;12.55;;;4.10;;
49650;SDS011;35547;55.676;37.492;2022-08-19T02:07:21;8.83;;;4.30;;
49650;SDS011;35547;55.676;37.492;2022-08-19T02:08:22;15.80;;;4.53;;
49650;SDS011;35547;55.676;37.492;2022-08-19T02:09:22;13.33;;;4.13;;
49650;SDS011;35547;55.676;37.492;2022-08-19T02:10:23;12.63;;;4.60;;
49650;SDS011;35547;55.676;37.492;2022-08-19T02:11:25;10.13;;;4.10;;
49650;SDS011;35547;55.676;37.492;2022-08-19T02:12:27;13.45;;;3.95;;
49650;SDS011;35547;55.676;37.492;2022-08-19T02:13:28;10.77;;;4.10;;
49650;SDS011;35547;55.676;37.492;2022-08-19T02:14:49;17.25;;;4.88;;
49650;SDS011;35547;55.676;37.492;2022-08-19T02:15:49;10.67;;;4.50;;
49650;SDS011;35547;55.676;37.492;2022-08-19T02:16:50;11.38;;;4.28;;
49650;SDS011;35547;55.676;37.492;2022-08-19T02:17:51;10.10;;;3.97;;
49650;SDS011;35547;55.676;37.492;2022-08-19T02:18:52;16.23;;;4.00;;
49650;SDS011;35547;55.676;37.492;2022-08-19T02:19:52;10.57;;;4.40;;
49650;SDS011;35547;55.676;37.492;2022-08-19T02:20:53;8.47;;;4.00;;
49650;SDS011;35547;55.676;37.492;2022-08-19T02:21:53;12.97;;;4.53;;
49650;SDS011;35547;55.676;37.492;2022-08-19T02:22:54;15.80;;;4.37;;
49650;SDS011;35547;55.676;37.492;2022-08-19T02:23:55;9.53;;;4.33;;
49650;SDS011;35547;55.676;37.492;2022-08-19T02:24:56;13.35;;;4.55;;
49650;SDS011;35547;55.676;37.492;2022-08-19T02:25:56;14.27;;;4.17;;
49650;SDS011;35547;55.676;37.492;2022-08-19T02:26:57;8.50;;;4.30;;
49650;SDS011;35547;55.676;37.492;2022-08-19T02:27:58;12.93;;;4.60;;
49650;SDS011;35547;55.676;37.492;2022-08-19T02:28:59;20.67;;;4.90;;
49650;SDS011;35547;55.676;37.492;2022-08-19T02:30:00;15.68;;;4.57;;
49650;SDS011;35547;55.676;37.492;2022-08-19T02:31:01;14.27;;;4.63;;
49650;SDS011;35547;55.676;37.492;2022-08-19T02:32:02;10.00;;;4.20;;
49650;SDS011;35547;55.676;37.492;2022-08-19T02:33:04;13.00;;;5.00;;
49650;SDS011;35547;55.676;37.492;2022-08-19T02:34:05;10.05;;;4.75;;
49650;SDS011;35547;55.676;37.492;2022-08-19T02:35:05;13.03;;;4.63;;
49650;SDS011;35547;55.676;37.492;2022-08-19T02:36:07;16.67;;;4.40;;
49650;SDS011;35547;55.676;37.492;2022-08-19T02:37:09;14.95;;;4.47;;
49650;SDS011;35547;55.676;37.492;2022-08-19T02:38:29;12.23;;;4.10;;
49650;SDS011;35547;55.676;37.492;2022-08-19T02:39:29;13.27;;;5.07;;
49650;SDS011;35547;55.676;37.492;2022-08-19T02:40:31;10.13;;;4.23;;
49650;SDS011;35547;55.676;37.492;2022-08-19T02:41:35;11.88;;;4.55;;
49650;SDS011;35547;55.676;37.492;2022-08-19T02:42:36;15.23;;;4.93;;
49650;SDS011;35547;55.676;37.492;2022-08-19T02:43:36;12.03;;;4.03;;
49650;SDS011;35547;55.676;37.492;2022-08-19T02:44:38;12.80;;;4.80;;
49650;SDS011;35547;55.676;37.492;2022-08-19T02:45:39;11.50;;;4.23;;
49650;SDS011;35547;55.676;37.492;2022-08-19T02:46:40;17.88;;;4.68;;
49650;SDS011;35547;55.676;37.492;2022-08-19T02:47:41;16.10;;;4.27;;
49650;SDS011;35547;55.676;37.492;2022-08-19T02:49:43;18.88;;;5.18;;
49650;SDS011;35547;55.676;37.492;2022-08-19T02:50:45;14.85;;;4.30;;
49650;SDS011;35547;55.676;37.492;2022-08-19T02:51:47;18.50;;;4.30;;
49650;SDS011;35547;55.676;37.492;2022-08-19T02:52:47;7.67;;;3.77;;
49650;SDS011;35547;55.676;37.492;2022-08-19T02:53:48;11.77;;;4.17;;
49650;SDS011;35547;55.676;37.492;2022-08-19T02:54:49;14.95;;;4.47;;
49650;SDS011;35547;55.676;37.492;2022-08-19T02:55:50;13.77;;;4.87;;
49650;SDS011;35547;55.676;37.492;2022-08-19T02:56:51;12.57;;;4.45;;
49650;SDS011;35547;55.676;37.492;2022-08-19T02:57:51;12.70;;;4.50;;
49650;SDS011;35547;55.676;37.492;2022-08-19T02:58:52;20.80;;;4.47;;
49650;SDS011;35547;55.676;37.492;2022-08-19T02:59:54;11.57;;;4.63;;
49650;SDS011;35547;55.676;37.492;2022-08-19T03:00:55;16.27;;;4.27;;
49650;SDS011;35547;55.676;37.492;2022-08-19T03:01:57;7.90;;;4.75;;
49650;SDS011;35547;55.676;37.492;2022-08-19T03:02:57;13.87;;;4.60;;
49650;SDS011;35547;55.676;37.492;2022-08-19T03:04:01;20.55;;;5.03;;
49650;SDS011;35547;55.676;37.492;2022-08-19T03:05:03;12.63;;;4.85;;
49650;SDS011;35547;55.676;37.492;2022-08-19T03:06:09;14.25;;;4.70;;
49650;SDS011;35547;55.676;37.492;2022-08-19T03:07:14;15.13;;;4.93;;
49650;SDS011;35547;55.676;37.492;2022-08-19T03:08:15;16.85;;;4.30;;
49650;SDS011;35547;55.676;37.492;2022-08-19T03:09:17;12.50;;;4.80;;
49650;SDS011;35547;55.676;37.492;2022-08-19T03:10:18;15.15;;;5.00;;
49650;SDS011;35547;55.676;37.492;2022-08-19T03:11:21;7.68;;;4.65;;
49650;SDS011;35547;55.676;37.492;2022-08-19T03:12:29;13.15;;;4.70;;
49650;SDS011;35547;55.676;37.492;2022-08-19T03:13:30;10.27;;;4.55;;
49650;SDS011;35547;55.676;37.492;2022-08-19T03:14:32;18.05;;;4.75;;
49650;SDS011;35547;55.676;37.492;2022-08-19T03:15:33;17.83;;;5.65;;
49650;SDS011;35547;55.676;37.492;2022-08-19T03:16:35;16.33;;;4.63;;
49650;SDS011;35547;55.676;37.492;2022-08-19T03:17:42;13.93;;;4.80;;
49650;SDS011;35547;55.676;37.492;2022-08-19T03:18:42;13.57;;;5.03;;
49650;SDS011;35547;55.676;37.492;2022-08-19T03:19:43;13.93;;;4.57;;
49650;SDS011;35547;55.676;37.492;2022-08-19T03:20:44;13.67;;;5.17;;
49650;SDS011;35547;55.676;37.492;2022-08-19T03:21:47;13.55;;;4.68;;
49650;SDS011;35547;55.676;37.492;2022-08-19T03:22:48;11.20;;;4.90;;
49650;SDS011;35547;55.676;37.492;2022-08-19T03:23:48;15.03;;;5.20;;
49650;SDS011;35547;55.676;37.492;2022-08-19T03:24:49;17.42;;;4.35;;
49650;SDS011;35547;55.676;37.492;2022-08-19T03:25:50;9.43;;;4.67;;
49650;SDS011;35547;55.676;37.492;2022-08-19T03:26:54;17.77;;;5.13;;
49650;SDS011;35547;55.676;37.492;2022-08-19T03:27:58;12.07;;;5.05;;
49650;SDS011;35547;55.676;37.492;2022-08-19T03:29:02;11.57;;;5.03;;
49650;SDS011;35547;55.676;37.492;2022-08-19T03:30:04;13.93;;;4.80;;
49650;SDS011;35547;55.676;37.492;2022-08-19T03:31:10;12.02;;;5.10;;
49650;SDS011;35547;55.676;37.492;2022-08-19T03:32:12;14.65;;;5.18;;
49650;SDS011;35547;55.676;37.492;2022-08-19T03:33:12;19.80;;;5.30;;
49650;SDS011;35547;55.676;37.492;2022-08-19T03:34:17;12.60;;;4.60;;
49650;SDS011;35547;55.676;37.492;2022-08-19T03:35:20;17.00;;;5.13;;
49650;SDS011;35547;55.676;37.492;2022-08-19T03:36:22;11.87;;;4.83;;
49650;SDS011;35547;55.676;37.492;2022-08-19T03:37:24;14.73;;;4.80;;
49650;SDS011;35547;55.676;37.492;2022-08-19T03:38:25;9.68;;;4.97;;
49650;SDS011;35547;55.676;37.492;2022-08-19T03:39:26;15.60;;;4.90;;
49650;SDS011;35547;55.676;37.492;2022-08-19T03:40:27;30.27;;;5.70;;
49650;SDS011;35547;55.676;37.492;2022-08-19T03:41:35;15.05;;;5.00;;
49650;SDS011;35547;55.676;37.492;2022-08-19T03:42:38;9.95;;;4.72;;
49650;SDS011;35547;55.676;37.492;2022-08-19T03:43:41;14.55;;;5.63;;
49650;SDS011;35547;55.676;37.492;2022-08-19T03:44:42;12.90;;;4.97;;
49650;SDS011;35547;55.676;37.492;2022-08-19T03:45:44;14.60;;;5.40;;
49650;SDS011;35547;55.676;37.492;2022-08-19T03:46:46;14.17;;;5.03;;
49650;SDS011;35547;55.676;37.492;2022-08-19T03:47:50;16.23;;;5.28;;
49650;SDS011;35547;55.676;37.492;2022-08-19T03:48:52;19.90;;;5.30;;
49650;SDS011;35547;55.676;37.492;2022-08-19T03:49:56;12.98;;;4.68;;
49650;SDS011;35547;55.676;37.492;2022-08-19T03:50:56;15.40;;;5.83;;
49650;SDS011;35547;55.676;37.492;2022-08-19T03:51:58;15.25;;;5.45;;
49650;SDS011;35547;55.676;37.492;2022-08-19T03:53:02;17.02;;;5.32;;
49650;SDS011;35547;55.676;37.492;2022-08-19T03:54:04;19.07;;;5.90;;
49650;SDS011;35547;55.676;37.492;2022-08-19T03:55:08;14.63;;;5.32;;
49650;SDS011;35547;55.676;37.492;2022-08-19T03:56:09;15.93;;;5.60;;
49650;SDS011;35547;55.676;37.492;2022-08-19T03:57:10;13.38;;;4.88;;
49650;SDS011;35547;55.676;37.492;2022-08-19T03:58:11;15.43;;;5.53;;
49650;SDS011;35547;55.676;37.492;2022-08-19T03:59:13;15.07;;;5.40;;
49650;SDS011;35547;55.676;37.492;2022-08-19T04:00:20;9.95;;;4.90;;
49650;SDS011;35547;55.676;37.492;2022-08-19T04:01:22;15.87;;;5.53;;
49650;SDS011;35547;55.676;37.492;2022-08-19T04:02:24;13.80;;;5.00;;
49650;SDS011;35547;55.676;37.492;2022-08-19T04:03:25;13.10;;;5.40;;
49650;SDS011;35547;55.676;37.492;2022-08-19T04:04:26;14.48;;;5.68;;
49650;SDS011;35547;55.676;37.492;2022-08-19T04:05:28;22.70;;;5.17;;
49650;SDS011;35547;55.676;37.492;2022-08-19T04:06:30;16.83;;;5.85;;
49650;SDS011;35547;55.676;37.492;2022-08-19T04:07:33;11.88;;;5.18;;
49650;SDS011;35547;55.676;37.492;2022-08-19T04:08:34;11.13;;;4.57;;
49650;SDS011;35547;55.676;37.492;2022-08-19T04:09:35;14.90;;;4.80;;
49650;SDS011;35547;55.676;37.492;2022-08-19T04:10:36;12.70;;;4.88;;
49650;SDS011;35547;55.676;37.492;2022-08-19T04:11:38;11.13;;;5.10;;
49650;SDS011;35547;55.676;37.492;2022-08-19T04:12:44;13.95;;;6.18;;
49650;SDS011;35547;55.676;37.492;2022-08-19T04:14:47;18.35;;;5.53;;
49650;SDS011;35547;55.676;37.492;2022-08-19T04:15:47;11.23;;;5.80;;
49650;SDS011;35547;55.676;37.492;2022-08-19T04:16:48;11.80;;;4.80;;
49650;SDS011;35547;55.676;37.492;2022-08-19T04:17:49;15.52;;;5.03;;
49650;SDS011;35547;55.676;37.492;2022-08-19T04:18:49;20.53;;;6.17;;
49650;SDS011;35547;55.676;37.492;2022-08-19T04:19:50;16.90;;;5.43;;
49650;SDS011;35547;55.676;37.492;2022-08-19T04:20:51;16.13;;;5.83;;
49650;SDS011;35547;55.676;37.492;2022-08-19T04:21:53;15.73;;;6.25;;
49650;SDS011;35547;55.676;37.492;2022-08-19T04:22:54;15.55;;;4.95;;
49650;SDS011;35547;55.676;37.492;2022-08-19T04:23:56;15.00;;;5.63;;
49650;SDS011;35547;55.676;37.492;2022-08-19T04:24:57;15.50;;;4.60;;
49650;SDS011;35547;55.676;37.492;2022-08-19T04:25:58;17.07;;;4.73;;
49650;SDS011;35547;55.676;37.492;2022-08-19T04:27:00;17.23;;;5.22;;
49650;SDS011;35547;55.676;37.492;2022-08-19T04:28:01;19.30;;;5.80;;
49650;SDS011;35547;55.676;37.492;2022-08-19T04:29:07;19.15;;;4.85;;
49650;SDS011;35547;55.676;37.492;2022-08-19T04:30:09;15.75;;;4.90;;
49650;SDS011;35547;55.676;37.492;2022-08-19T04:31:18;23.70;;;5.03;;
49650;SDS011;35547;55.676;37.492;2022-08-19T04:32:21;11.48;;;4.85;;
49650;SDS011;35547;55.676;37.492;2022-08-19T04:33:23;18.35;;;5.20;;
49650;SDS011;35547;55.676;37.492;2022-08-19T04:34:26;18.80;;;5.20;;
49650;SDS011;35547;55.676;37.492;2022-08-19T04:35:28;22.65;;;5.13;;
49650;SDS011;35547;55.676;37.492;2022-08-19T04:36:36;11.13;;;4.57;;
49650;SDS011;35547;55.676;37.492;2022-08-19T04:37:39;20.17;;;5.32;;
49650;SDS011;35547;55.676;37.492;2022-08-19T04:38:39;17.87;;;4.77;;
49650;SDS011;35547;55.676;37.492;2022-08-19T04:39:40;11.73;;;4.73;;
49650;SDS011;35547;55.676;37.492;2022-08-19T04:40:59;13.60;;;5.10;;
49650;SDS011;35547;55.676;37.492;2022-08-19T04:42:18;13.50;;;4.78;;
49650;SDS011;35547;55.676;37.492;2022-08-19T04:43:37;13.90;;;4.70;;
49650;SDS011;35547;55.676;37.492;2022-08-19T04:44:38;11.10;;;4.47;;
49650;SDS011;35547;55.676;37.492;2022-08-19T04:45:39;14.30;;;5.27;;
49650;SDS011;35547;55.676;37.492;2022-08-19T04:46:40;12.98;;;5.00;;
49650;SDS011;35547;55.676;37.492;2022-08-19T04:47:41;15.47;;;4.80;;
49650;SDS011;35547;55.676;37.492;2022-08-19T04:48:44;12.25;;;4.47;;
49650;SDS011;35547;55.676;37.492;2022-08-19T04:50:04;12.35;;;4.80;;
49650;SDS011;35547;55.676;37.492;2022-08-19T04:51:07;14.68;;;5.10;;
49650;SDS011;35547;55.676;37.492;2022-08-19T04:52:10;14.05;;;5.65;;
49650;SDS011;35547;55.676;37.492;2022-08-19T04:53:11;15.47;;;5.20;;
49650;SDS011;35547;55.676;37.492;2022-08-19T04:54:11;11.60;;;4.90;;
49650;SDS011;35547;55.676;37.492;2022-08-19T04:55:12;13.27;;;4.75;;
49650;SDS011;35547;55.676;37.492;2022-08-19T04:56:14;9.32;;;4.85;;
49650;SDS011;35547;55.676;37.492;2022-08-19T04:57:16;21.02;;;6.85;;
49650;SDS011;35547;55.676;37.492;2022-08-19T04:58:17;12.63;;;4.70;;
49650;SDS011;35547;55.676;37.492;2022-08-19T04:59:18;11.53;;;5.30;;
49650;SDS011;35547;55.676;37.492;2022-08-19T05:00:20;9.80;;;5.55;;
49650;SDS011;35547;55.676;37.492;2022-08-19T05:01:25;18.43;;;4.63;;
49650;SDS011;35547;55.676;37.492;2022-08-19T05:02:28;14.80;;;4.70;;
49650;SDS011;35547;55.676;37.492;2022-08-19T05:03:29;14.15;;;4.88;;
49650;SDS011;35547;55.676;37.492;2022-08-19T05:04:33;12.07;;;5.03;;
49650;SDS011;35547;55.676;37.492;2022-08-19T05:05:38;22.85;;;5.63;;
49650;SDS011;35547;55.676;37.492;2022-08-19T05:06:40;12.07;;;5.20;;
49650;SDS011;35547;55.676;37.492;2022-08-19T05:07:41;19.40;;;6.05;;
49650;SDS011;35547;55.676;37.492;2022-08-19T05:08:42;12.47;;;5.33;;
49650;SDS011;35547;55.676;37.492;2022-08-19T05:09:43;17.25;;;5.50;;
49650;SDS011;35547;55.676;37.492;2022-08-19T05:10:44;17.20;;;5.90;;
49650;SDS011;35547;55.676;37.492;2022-08-19T05:12:46;12.48;;;5.45;;
49650;SDS011;35547;55.676;37.492;2022-08-19T05:13:47;16.73;;;5.50;;
49650;SDS011;35547;55.676;37.492;2022-08-19T05:14:48;13.13;;;5.60;;
49650;SDS011;35547;55.676;37.492;2022-08-19T05:15:56;16.55;;;5.18;;
49650;SDS011;35547;55.676;37.492;2022-08-19T05:16:57;14.90;;;5.18;;
49650;SDS011;35547;55.676;37.492;2022-08-19T05:17:58;15.20;;;4.73;;
49650;SDS011;35547;55.676;37.492;2022-08-19T05:19:17;14.25;;;5.35;;
49650;SDS011;35547;55.676;37.492;2022-08-19T05:20:37;13.23;;;5.20;;
49650;SDS011;35547;55.676;37.492;2022-08-19T05:21:57;15.82;;;4.97;;
49650;SDS011;35547;55.676;37.492;2022-08-19T05:23:17;19.15;;;5.55;;
49650;SDS011;35547;55.676;37.492;2022-08-19T05:24:18;11.77;;;5.53;;
49650;SDS011;35547;55.676;37.492;2022-08-19T05:25:20;17.35;;;5.65;;
49650;SDS011;35547;55.676;37.492;2022-08-19T05:26:22;13.77;;;5.30;;
49650;SDS011;35547;55.676;37.492;2022-08-19T05:27:23;16.83;;;5.95;;
49650;SDS011;35547;55.676;37.492;2022-08-19T05:28:23;15.53;;;5.87;;
49650;SDS011;35547;55.676;37.492;2022-08-19T05:29:26;14.60;;;6.05;;
49650;SDS011;35547;55.676;37.492;2022-08-19T05:30:27;14.55;;;5.68;;
49650;SDS011;35547;55.676;37.492;2022-08-19T05:31:28;14.23;;;5.40;;
49650;SDS011;35547;55.676;37.492;2022-08-19T05:32:29;12.05;;;4.97;;
49650;SDS011;35547;55.676;37.492;2022-08-19T05:33:29;11.60;;;5.60;;
49650;SDS011;35547;55.676;37.492;2022-08-19T05:34:30;20.10;;;6.33;;
49650;SDS011;35547;55.676;37.492;2022-08-19T05:35:32;20.30;;;5.63;;
49650;SDS011;35547;55.676;37.492;2022-08-19T05:36:35;11.17;;;5.63;;
49650;SDS011;35547;55.676;37.492;2022-08-19T05:37:41;10.02;;;5.70;;
49650;SDS011;35547;55.676;37.492;2022-08-19T05:38:41;17.80;;;6.20;;
49650;SDS011;35547;55.676;37.492;2022-08-19T05:39:45;16.57;;;5.67;;
49650;SDS011;35547;55.676;37.492;2022-08-19T05:40:49;11.82;;;5.45;;
49650;SDS011;35547;55.676;37.492;2022-08-19T05:41:53;15.57;;;5.17;;
49650;SDS011;35547;55.676;37.492;2022-08-19T05:42:59;18.70;;;5.03;;
49650;SDS011;35547;55.676;37.492;2022-08-19T05:44:04;14.13;;;5.80;;
49650;SDS011;35547;55.676;37.492;2022-08-19T05:45:09;14.32;;;5.47;;
49650;SDS011;35547;55.676;37.492;2022-08-19T05:46:15;17.85;;;5.78;;
49650;SDS011;35547;55.676;37.492;2022-08-19T05:47:18;12.75;;;5.15;;
49650;SDS011;35547;55.676;37.492;2022-08-19T05:48:20;14.90;;;5.88;;
49650;SDS011;35547;55.676;37.492;2022-08-19T05:49:21;16.80;;;5.95;;
49650;SDS011;35547;55.676;37.492;2022-08-19T05:50:22;17.60;;;5.82;;
49650;SDS011;35547;55.676;37.492;2022-08-19T05:51:23;11.70;;;5.70;;
49650;SDS011;35547;55.676;37.492;2022-08-19T05:52:25;16.83;;;5.95;;
49650;SDS011;35547;55.676;37.492;2022-08-19T05:53:27;9.15;;;5.53;;
49650;SDS011;35547;55.676;37.492;2022-08-19T05:54:27;17.00;;;5.53;;
49650;SDS011;35547;55.676;37.492;2022-08-19T05:55:28;17.20;;;6.53;;
49650;SDS011;35547;55.676;37.492;2022-08-19T05:56:28;16.17;;;5.37;;
49650;SDS011;35547;55.676;37.492;2022-08-19T05:57:30;15.50;;;5.43;;
49650;SDS011;35547;55.676;37.492;2022-08-19T05:58:31;16.27;;;6.50;;
49650;SDS011;35547;55.676;37.492;2022-08-19T05:59:32;19.23;;;6.45;;
49650;SDS011;35547;55.676;37.492;2022-08-19T06:00:35;17.05;;;5.90;;
49650;SDS011;35547;55.676;37.492;2022-08-19T06:02:39;21.17;;;6.13;;
49650;SDS011;35547;55.676;37.492;2022-08-19T06:04:41;17.50;;;5.47;;
49650;SDS011;35547;55.676;37.492;2022-08-19T06:05:45;14.43;;;5.88;;
49650;SDS011;35547;55.676;37.492;2022-08-19T06:06:47;26.13;;;6.97;;
49650;SDS011;35547;55.676;37.492;2022-08-19T06:07:48;18.00;;;5.45;;
49650;SDS011;35547;55.676;37.492;2022-08-19T06:08:49;13.33;;;5.83;;
49650;SDS011;35547;55.676;37.492;2022-08-19T06:09:50;25.20;;;6.35;;
49650;SDS011;35547;55.676;37.492;2022-08-19T06:10:51;13.80;;;8.00;;
49650;SDS011;35547;55.676;37.492;2022-08-19T06:11:53;18.90;;;7.47;;
49650;SDS011;35547;55.676;37.492;2022-08-19T06:12:58;17.75;;;5.93;;
49650;SDS011;35547;55.676;37.492;2022-08-19T06:14:00;16.10;;;6.37;;
49650;SDS011;35547;55.676;37.492;2022-08-19T06:15:05;15.55;;;5.18;;
49650;SDS011;35547;55.676;37.492;2022-08-19T06:16:09;17.40;;;5.90;;